Panola, Alabama
Current Conditions -  °F | °C
As of 2:56 PM on Friday 19 Dec 2014 (Local Time) from KNMM Reporting Station
Light Rain Light Rain  
Wind Chill: 46°   Ceiling: 4800
Heat Index: 46°   Visibility: 6mi
Dew Point: 42°   Wind: 3mph
Humidity: 86%   Direction: 10°N
Pressure: 30.16"   Gusts: NA
Location:  32.95°N, 88.27°W
Report Text: KNMM 192056Z 01003KT 6SM -RA BR SCT036 BKN048 OVC085 08/06 A3016 RMK AO2 SLP225 P0003 60007 T00780056 55011
Loading
Personal Weather Stations






























Interactive Weather Map New forecast layout! Learn more

10-Day Weather Forecast

Advertisements
Track Severe Weather on mobile